Time;durP1;ratioP1;P1;durP2;ratioP2;P2;SDS_P1;SDS_P2;PMS_P1;PMS_P2;Temp;Humidity;BMP_temperature;BMP_pressure;BME280_temperature;BME280_humidity;BME280_pressure;Samples;Min_cycle;Max_cycle;Signal;HPM_P1;HPM_P2
2023/03/15 00:01:40;;;;;;;28.23;10.20;;;6.70;99.90;;;;;;5026773;28;20048;-62
2023/03/15 00:04:06;;;;;;;24.93;12.07;;;6.90;99.90;;;;;;5026437;28;20026;-64
2023/03/15 00:06:33;;;;;;;24.33;9.33;;;6.80;99.90;;;;;;5026142;28;20470;-64
2023/03/15 00:09:00;;;;;;;23.45;10.05;;;6.80;99.90;;;;;;5025750;28;20043;-67
2023/03/15 00:11:29;;;;;;;19.30;8.77;;;6.60;99.90;;;;;;5029356;28;20042;-65
2023/03/15 00:13:56;;;;;;;23.42;9.40;;;6.70;99.90;;;;;;5029484;28;20045;-66
2023/03/15 00:16:25;;;;;;;17.20;8.63;;;6.70;99.90;;;;;;5028515;28;20512;-64
2023/03/15 00:18:52;;;;;;;22.63;9.25;;;6.70;99.90;;;;;;5029095;28;20045;-65
2023/03/15 00:21:18;;;;;;;27.48;9.10;;;6.60;99.90;;;;;;5029331;28;20122;-68
2023/03/15 00:23:43;;;;;;;23.33;9.27;;;6.80;99.90;;;;;;5029533;28;20533;-68
2023/03/15 00:26:09;;;;;;;21.77;9.03;;;6.90;99.90;;;;;;5029565;28;20032;-67
2023/03/15 00:28:34;;;;;;;25.23;10.53;;;6.90;99.90;;;;;;5030004;28;20117;-64
2023/03/15 00:31:12;;;;;;;18.83;9.23;;;6.80;99.90;;;;;;5027801;28;20382;-65
2023/03/15 00:33:38;;;;;;;33.22;10.25;;;6.80;99.90;;;;;;5029443;28;20026;-66
2023/03/15 00:36:05;;;;;;;26.67;8.43;;;6.90;99.90;;;;;;5029253;28;20030;-66
2023/03/15 00:38:36;;;;;;;24.05;9.57;;;6.80;99.90;;;;;;5029555;28;20128;-64
2023/03/15 00:41:13;;;;;;;17.73;9.40;;;6.90;99.90;;;;;;5029258;28;20452;-64
2023/03/15 00:43:38;;;;;;;22.45;9.75;;;6.80;99.90;;;;;;5028551;28;20036;-67
2023/03/15 00:46:05;;;;;;;22.02;9.75;;;6.80;99.90;;;;;;5029508;28;20108;-65
2023/03/15 00:48:31;;;;;;;25.38;10.20;;;6.80;99.90;;;;;;5029287;28;20356;-66
2023/03/15 00:51:00;;;;;;;;;;;6.80;99.90;;;;;;5029599;28;20044;-66
2023/03/15 00:53:26;;;;;;;21.83;10.10;;;6.90;99.90;;;;;;5029131;28;19919;-66
2023/03/15 00:55:52;;;;;;;26.27;10.43;;;6.80;99.90;;;;;;5028801;28;20037;-67
2023/03/15 00:58:17;;;;;;;27.00;10.53;;;6.70;99.90;;;;;;5028385;28;20068;-67
2023/03/15 01:00:43;;;;;;;20.03;9.40;;;6.60;99.90;;;;;;5028252;28;20048;-68
2023/03/15 01:03:08;;;;;;;25.37;10.40;;;6.70;99.90;;;;;;5029125;28;20264;-68
2023/03/15 01:05:35;;;;;;;21.00;9.23;;;6.80;99.90;;;;;;5028854;28;20029;-67
2023/03/15 01:08:01;;;;;;;19.88;9.10;;;6.90;99.90;;;;;;5028661;28;20439;-68
2023/03/15 01:10:27;;;;;;;;;;;6.80;99.90;;;;;;5028948;28;20049;-66
2023/03/15 01:12:53;;;;;;;23.75;10.65;;;6.70;99.90;;;;;;5028867;28;19954;-66
2023/03/15 01:15:19;;;;;;;24.27;10.67;;;6.70;99.90;;;;;;5028577;28;20803;-65
2023/03/15 01:17:44;;;;;;;20.87;9.67;;;6.60;99.90;;;;;;5028347;28;20037;-65
2023/03/15 01:20:12;;;;;;;22.90;10.60;;;6.50;99.90;;;;;;5028972;28;20030;-66
2023/03/15 01:22:38;;;;;;;21.25;8.90;;;6.40;99.90;;;;;;5028533;28;20091;-68
2023/03/15 01:25:04;;;;;;;26.37;11.03;;;6.50;99.90;;;;;;5028647;28;20505;-68
2023/03/15 01:27:30;;;;;;;25.88;11.55;;;6.60;99.90;;;;;;5028733;28;20014;-69
2023/03/15 01:29:56;;;;;;;23.90;9.63;;;6.80;99.90;;;;;;5028838;28;20044;-63
2023/03/15 01:32:21;;;;;;;25.83;10.30;;;6.70;99.90;;;;;;5028683;28;20452;-64
2023/03/15 01:34:47;;;;;;;23.15;10.73;;;6.60;99.90;;;;;;5028620;28;20030;-67
2023/03/15 01:37:13;;;;;;;19.10;11.27;;;6.50;99.90;;;;;;5028250;28;20077;-68
2023/03/15 01:39:39;;;;;;;24.83;10.48;;;6.50;99.90;;;;;;5028324;28;20082;-63
2023/03/15 01:42:05;;;;;;;26.30;11.00;;;6.40;99.90;;;;;;5026598;28;20425;-64
2023/03/15 01:44:54;;;;;;;22.83;10.17;;;6.40;99.90;;;;;;5027592;28;20072;-66
2023/03/15 01:47:20;;;;;;;31.25;11.77;;;6.20;99.90;;;;;;5028369;28;20351;-66
2023/03/15 01:49:51;;;;;;;26.05;10.88;;;6.20;99.90;;;;;;5028081;28;20027;-65
2023/03/15 01:52:24;;;;;;;27.17;10.55;;;6.20;99.90;;;;;;5028365;28;20026;-66
2023/03/15 01:55:09;;;;;;;25.65;10.57;;;6.10;99.90;;;;;;5027920;28;20025;-65
2023/03/15 01:57:45;;;;;;;22.52;9.80;;;6.10;99.90;;;;;;5027880;28;20041;-64
2023/03/15 02:00:17;;;;;;;20.25;9.57;;;6.00;99.90;;;;;;5028095;28;20029;-67
2023/03/15 02:02:51;;;;;;;18.90;10.55;;;6.10;99.90;;;;;;5028233;28;20448;-67
2023/03/15 02:05:24;;;;;;;18.52;9.32;;;6.00;99.90;;;;;;5027673;28;20022;-63
2023/03/15 02:07:53;;;;;;;26.60;10.32;;;5.90;99.90;;;;;;5027386;28;20033;-65
2023/03/15 02:10:50;;;;;;;19.55;9.13;;;6.00;99.90;;;;;;5025794;28;20394;-64
2023/03/15 02:13:21;;;;;;;21.52;9.57;;;5.90;99.90;;;;;;5014964;28;20037;-66
2023/03/15 02:15:47;;;;;;;24.52;9.32;;;5.80;99.90;;;;;;5026668;28;20397;-63
2023/03/15 02:18:14;;;;;;;25.77;11.10;;;5.80;99.90;;;;;;5026035;28;20033;-68
2023/03/15 02:20:59;;;;;;;26.08;10.70;;;5.80;99.90;;;;;;5023036;28;20034;-64
2023/03/15 02:23:25;;;;;;;22.05;8.93;;;5.80;99.90;;;;;;5025433;28;20033;-64
2023/03/15 02:26:08;;;;;;;19.30;8.60;;;5.80;99.90;;;;;;5027394;28;20072;-67
2023/03/15 02:28:35;;;;;;;21.77;10.18;;;5.70;99.90;;;;;;5027257;28;20033;-67
2023/03/15 02:31:00;;;;;;;19.73;10.50;;;5.60;99.90;;;;;;5027378;28;20041;-67
2023/03/15 02:33:37;;;;;;;26.13;11.67;;;5.50;99.90;;;;;;5027429;28;20064;-67
2023/03/15 02:36:10;;;;;;;25.23;10.50;;;5.50;99.90;;;;;;5027369;28;20366;-65
2023/03/15 02:38:36;;;;;;;22.95;10.57;;;5.40;99.90;;;;;;5027633;28;20041;-67
2023/03/15 02:41:03;;;;;;;20.33;9.43;;;5.40;99.90;;;;;;5027463;28;20447;-65
2023/03/15 02:43:31;;;;;;;24.02;10.05;;;5.30;99.90;;;;;;5027068;28;20041;-67
2023/03/15 02:45:57;;;;;;;27.77;11.15;;;5.20;99.90;;;;;;5027012;28;20021;-68
2023/03/15 02:48:23;;;;;;;21.52;10.48;;;5.20;99.90;;;;;;5027013;28;20033;-64
2023/03/15 02:50:48;;;;;;;21.40;10.97;;;5.30;99.90;;;;;;5027079;28;20513;-63
2023/03/15 02:53:14;;;;;;;22.43;10.77;;;5.20;99.90;;;;;;5027227;28;20029;-69
2023/03/15 02:55:40;;;;;;;24.97;10.70;;;5.20;99.90;;;;;;5025406;28;20800;-65
2023/03/15 02:58:05;;;;;;;20.93;9.53;;;5.20;99.90;;;;;;5022629;28;20025;-66
2023/03/15 03:00:31;;;;;;;19.30;9.98;;;5.10;99.90;;;;;;5025291;28;20037;-67
2023/03/15 03:02:57;;;;;;;24.58;10.25;;;5.20;99.90;;;;;;5026257;28;20033;-66
2023/03/15 03:05:23;;;;;;;17.30;8.65;;;5.10;99.90;;;;;;5026338;28;20029;-67
2023/03/15 03:07:49;;;;;;;24.93;11.03;;;4.90;99.90;;;;;;5025976;28;20117;-66
2023/03/15 03:10:17;;;;;;;48.33;9.95;;;4.90;99.90;;;;;;5026142;28;20037;-68
2023/03/15 03:12:42;;;;;;;22.33;10.18;;;4.90;99.90;;;;;;5025029;28;20034;-68
2023/03/15 03:15:09;;;;;;;19.00;8.63;;;4.90;99.90;;;;;;5025748;28;20083;-66
2023/03/15 03:17:36;;;;;;;;;;;4.90;99.90;;;;;;5025951;28;20049;-65
2023/03/15 03:20:09;;;;;;;17.52;7.20;;;4.90;99.90;;;;;;5025670;28;20695;-68
2023/03/15 03:22:36;;;;;;;14.32;6.93;;;4.90;99.90;;;;;;5025111;28;20034;-68
2023/03/15 03:25:02;;;;;;;13.35;6.35;;;4.80;99.90;;;;;;5025992;28;20034;-62
2023/03/15 03:27:28;;;;;;;14.65;5.75;;;4.80;99.90;;;;;;5024912;28;20509;-68
2023/03/15 03:29:55;;;;;;;16.13;6.15;;;4.80;99.90;;;;;;5025696;28;20026;-68
2023/03/15 03:32:20;;;;;;;20.60;6.75;;;4.80;99.90;;;;;;5024850;28;20947;-67
2023/03/15 03:34:47;;;;;;;15.70;6.10;;;4.80;99.90;;;;;;5025659;28;20038;-65
2023/03/15 03:37:19;;;;;;;13.75;6.40;;;4.80;99.90;;;;;;5025452;28;20044;-66
2023/03/15 03:39:45;;;;;;;17.13;6.30;;;4.70;99.90;;;;;;5025661;28;20033;-67
2023/03/15 03:42:11;;;;;;;18.25;6.45;;;4.60;99.90;;;;;;5025696;28;20034;-63
2023/03/15 03:44:36;;;;;;;14.95;5.40;;;4.70;99.90;;;;;;5025899;28;20033;-63
2023/03/15 03:47:03;;;;;;;13.33;6.33;;;4.60;99.90;;;;;;5029538;28;20036;-67
2023/03/15 03:49:28;;;;;;;14.40;6.45;;;4.50;99.90;;;;;;5029443;28;20086;-66
2023/03/15 03:51:54;;;;;;;17.73;6.40;;;4.50;99.90;;;;;;5029294;28;20038;-66
2023/03/15 03:54:20;;;;;;;21.03;6.73;;;4.50;99.90;;;;;;5029643;28;20025;-65
2023/03/15 03:56:46;;;;;;;18.42;6.20;;;4.50;99.90;;;;;;5027704;28;20200;-66
2023/03/15 03:59:12;;;;;;;;;;;4.50;99.90;;;;;;5030527;28;20032;-64
2023/03/15 04:01:38;;;;;;;14.57;6.18;;;4.50;99.90;;;;;;5029099;28;19905;-63
2023/03/15 04:04:04;;;;;;;13.82;5.75;;;4.40;99.90;;;;;;5029694;28;20029;-65
2023/03/15 04:06:30;;;;;;;14.88;5.57;;;4.30;99.90;;;;;;5029173;28;20392;-65
2023/03/15 04:08:55;;;;;;;17.88;5.38;;;4.30;99.90;;;;;;5029193;28;20030;-66
2023/03/15 04:11:25;;;;;;;14.10;5.20;;;4.10;99.90;;;;;;5028628;28;20048;-65
2023/03/15 04:13:52;;;;;;;15.00;5.28;;;4.00;99.90;;;;;;5028364;28;20284;-63
2023/03/15 04:16:18;;;;;;;14.85;6.72;;;4.00;99.90;;;;;;5029004;28;20037;-65
2023/03/15 04:18:44;;;;;;;10.80;4.88;;;4.10;99.90;;;;;;5028867;28;20041;-66
2023/03/15 04:21:09;;;;;;;13.73;5.80;;;4.00;99.90;;;;;;5028265;28;20034;-63
2023/03/15 04:23:36;;;;;;;8.10;4.60;;;4.00;99.90;;;;;;5028231;28;20033;-65
2023/03/15 04:26:04;;;;;;;18.52;5.57;;;3.90;99.90;;;;;;5027492;28;21034;-62
2023/03/15 04:28:30;;;;;;;14.48;5.22;;;3.80;99.90;;;;;;5028571;28;20698;-67
2023/03/15 04:30:57;;;;;;;14.85;5.60;;;3.90;99.90;;;;;;5028607;28;20059;-64
2023/03/15 04:33:24;;;;;;;12.60;5.05;;;3.90;99.90;;;;;;5028766;28;20032;-66
2023/03/15 04:35:51;;;;;;;18.55;5.05;;;3.90;99.90;;;;;;5027158;28;20042;-65
2023/03/15 04:38:17;;;;;;;14.75;5.32;;;4.10;99.90;;;;;;5028253;28;20033;-66
2023/03/15 04:40:43;;;;;;;15.35;5.47;;;4.00;99.90;;;;;;5028425;28;20029;-66
2023/03/15 04:43:09;;;;;;;16.75;5.28;;;3.90;99.90;;;;;;5027664;28;20144;-67
2023/03/15 04:45:35;;;;;;;14.38;5.00;;;3.90;99.90;;;;;;5059541;28;20112;-68
2023/03/15 04:48:01;;;;;;;14.13;5.97;;;4.00;99.90;;;;;;5028169;28;20128;-64
2023/03/15 04:50:28;;;;;;;14.95;4.93;;;4.00;99.90;;;;;;5028227;28;20287;-65
2023/03/15 04:52:54;;;;;;;19.50;7.03;;;3.90;99.90;;;;;;5027719;28;20041;-66
2023/03/15 04:55:19;;;;;;;18.87;5.50;;;3.80;99.90;;;;;;5028520;28;20497;-67
2023/03/15 04:57:45;;;;;;;13.55;5.43;;;3.80;99.90;;;;;;5026852;28;20288;-65
2023/03/15 05:00:12;;;;;;;8.73;4.97;;;3.70;99.90;;;;;;5028418;28;20049;-64
2023/03/15 05:02:53;;;;;;;12.90;5.07;;;3.70;99.90;;;;;;5027304;28;20034;-64
2023/03/15 05:05:20;;;;;;;17.77;5.90;;;3.60;99.90;;;;;;5028081;28;20036;-67
2023/03/15 05:07:45;;;;;;;;;;;3.70;99.90;;;;;;5028505;28;20065;-65
2023/03/15 05:10:11;;;;;;;17.80;5.60;;;3.70;99.90;;;;;;5027975;28;19952;-67
2023/03/15 05:12:37;;;;;;;16.85;5.70;;;3.60;99.90;;;;;;5027846;28;20083;-63
2023/03/15 05:15:03;;;;;;;15.73;6.35;;;3.40;99.90;;;;;;5027798;28;20398;-67
2023/03/15 05:17:28;;;;;;;14.68;5.85;;;3.30;99.90;;;;;;5027606;28;20519;-66
2023/03/15 05:19:54;;;;;;;18.53;7.00;;;3.30;99.90;;;;;;5028342;28;20041;-66
2023/03/15 05:22:24;;;;;;;15.80;4.73;;;3.30;99.90;;;;;;5028062;28;20029;-67
2023/03/15 05:24:50;;;;;;;14.15;5.38;;;3.20;99.90;;;;;;5027755;28;20042;-66
2023/03/15 05:27:15;;;;;;;17.90;5.50;;;3.30;99.90;;;;;;5026947;28;20025;-64
2023/03/15 05:29:41;;;;;;;13.27;5.47;;;3.30;99.90;;;;;;5027961;28;20040;-66
2023/03/15 05:32:07;;;;;;;13.95;5.35;;;3.20;99.90;;;;;;5027540;28;20047;-66
2023/03/15 05:34:33;;;;;;;18.63;6.18;;;3.10;99.90;;;;;;5027450;28;20033;-65
2023/03/15 05:36:59;;;;;;;14.97;5.90;;;3.00;99.90;;;;;;5027244;28;20045;-67
2023/03/15 05:39:25;;;;;;;18.13;5.72;;;3.00;99.90;;;;;;5027418;28;20056;-67
2023/03/15 05:41:50;;;;;;;13.47;5.30;;;3.00;99.90;;;;;;5027276;28;20037;-67
2023/03/15 05:44:16;;;;;;;12.37;5.40;;;3.00;99.90;;;;;;5025190;28;20558;-66
2023/03/15 05:46:42;;;;;;;15.35;5.00;;;2.90;99.90;;;;;;5026863;28;20288;-65
2023/03/15 05:49:08;;;;;;;16.70;6.00;;;3.10;99.90;;;;;;5027083;28;20113;-67
2023/03/15 05:51:34;;;;;;;11.60;5.10;;;3.10;99.90;;;;;;5026881;28;20121;-68
2023/03/15 05:53:59;;;;;;;15.27;5.78;;;3.10;99.90;;;;;;5027560;28;20112;-66
2023/03/15 05:56:25;;;;;;;14.70;5.60;;;3.20;99.90;;;;;;5026892;28;20043;-65
2023/03/15 05:58:51;;;;;;;14.63;5.40;;;3.20;99.90;;;;;;5025584;28;20040;-66
2023/03/15 06:01:16;;;;;;;20.60;6.60;;;3.20;99.90;;;;;;5026075;28;20517;-63
2023/03/15 06:03:42;;;;;;;13.70;6.43;;;3.20;99.90;;;;;;5026690;28;20083;-65
2023/03/15 06:06:08;;;;;;;17.30;6.33;;;3.30;99.90;;;;;;5025097;28;20402;-67
2023/03/15 06:08:33;;;;;;;12.43;5.47;;;3.30;99.90;;;;;;5021297;28;20033;-66
2023/03/15 06:10:59;;;;;;;19.00;5.57;;;3.40;99.90;;;;;;5026960;28;20397;-64
2023/03/15 06:13:24;;;;;;;16.67;5.40;;;3.40;99.90;;;;;;5026419;28;20030;-64
2023/03/15 06:15:50;;;;;;;16.80;5.30;;;3.50;99.90;;;;;;5026202;28;20283;-62
2023/03/15 06:18:18;;;;;;;23.33;6.00;;;3.50;99.90;;;;;;5026888;28;20037;-65
2023/03/15 06:20:44;;;;;;;11.60;5.15;;;3.50;99.90;;;;;;5024521;28;20030;-65
2023/03/15 06:23:10;;;;;;;16.67;6.50;;;3.70;99.90;;;;;;5020089;28;20203;-64
2023/03/15 06:25:36;;;;;;;18.67;5.95;;;3.60;99.90;;;;;;5025364;28;20032;-63
2023/03/15 06:28:01;;;;;;;15.05;6.88;;;3.70;99.90;;;;;;5025825;28;20033;-63
2023/03/15 06:30:27;;;;;;;16.85;6.53;;;3.70;99.90;;;;;;5033197;28;20229;-66
2023/03/15 06:32:54;;;;;;;27.10;7.82;;;3.80;99.90;;;;;;5023289;28;20112;-66
2023/03/15 06:35:20;;;;;;;17.20;5.75;;;4.50;99.90;;;;;;5025088;28;20116;-63
2023/03/15 06:37:46;;;;;;;14.03;6.13;;;5.30;99.90;;;;;;5024588;28;20116;-67
2023/03/15 06:40:12;;;;;;;11.55;6.35;;;5.40;99.90;;;;;;5020780;28;20101;-66
2023/03/15 06:42:40;;;;;;;21.83;6.38;;;5.10;99.90;;;;;;5023518;28;20065;-67
2023/03/15 06:45:07;;;;;;;19.70;5.45;;;4.90;99.90;;;;;;5024424;28;20017;-67
2023/03/15 06:47:33;;;;;;;14.55;6.25;;;4.70;99.90;;;;;;5022479;28;20033;-66
2023/03/15 06:49:58;;;;;;;21.75;7.28;;;4.50;99.90;;;;;;5023495;28;20040;-66
2023/03/15 06:52:24;;;;;;;17.57;6.20;;;4.40;99.90;;;;;;5024882;28;20030;-64
2023/03/15 06:54:50;;;;;;;14.87;6.53;;;4.40;99.90;;;;;;5022761;28;20018;-68
2023/03/15 06:57:15;;;;;;;15.50;5.83;;;4.50;99.90;;;;;;5022607;28;20053;-65
2023/03/15 06:59:41;;;;;;;23.67;7.13;;;4.50;99.90;;;;;;5024571;28;20041;-67
2023/03/15 07:02:13;;;;;;;13.18;6.40;;;4.50;99.90;;;;;;5024923;28;20048;-68
2023/03/15 07:04:39;;;;;;;18.10;6.80;;;4.60;99.90;;;;;;5025398;28;20036;-66
2023/03/15 07:07:05;;;;;;;20.27;6.83;;;4.50;99.90;;;;;;5020050;28;20104;-63
2023/03/15 07:09:30;;;;;;;18.27;6.70;;;4.70;99.90;;;;;;5025593;28;20524;-68
2023/03/15 07:11:56;;;;;;;17.23;7.53;;;6.40;99.90;;;;;;5025271;28;20568;-67
2023/03/15 07:14:21;;;;;;;18.33;7.07;;;7.80;99.90;;;;;;5020586;28;20029;-67
2023/03/15 07:16:48;;;;;;;19.87;6.00;;;8.90;99.90;;;;;;5023569;28;20344;-64
2023/03/15 07:19:13;;;;;;;17.83;6.43;;;8.60;99.90;;;;;;5015465;28;20293;-66
2023/03/15 07:21:39;;;;;;;20.33;5.80;;;8.40;99.90;;;;;;5029872;28;20516;-64
2023/03/15 07:24:05;;;;;;;14.73;5.60;;;9.00;99.90;;;;;;5030151;28;20049;-66
2023/03/15 07:26:30;;;;;;;19.48;5.63;;;10.40;99.90;;;;;;5029363;28;20064;-67
2023/03/15 07:28:56;;;;;;;13.93;5.03;;;12.10;98.10;;;;;;5028820;28;20072;-69
2023/03/15 07:31:22;;;;;;;19.20;4.83;;;13.70;94.10;;;;;;5026644;28;20143;-69
2023/03/15 07:33:47;;;;;;;12.93;5.07;;;14.20;90.90;;;;;;5029582;28;20548;-67
2023/03/15 07:36:13;;;;;;;9.60;5.10;;;14.70;89.20;;;;;;5026523;28;20052;-67
2023/03/15 07:38:40;;;;;;;14.53;5.20;;;15.40;87.60;;;;;;5029736;28;20592;-68
2023/03/15 07:41:06;;;;;;;9.38;4.68;;;15.60;85.70;;;;;;5028431;28;20553;-66
2023/03/15 07:43:33;;;;;;;10.73;4.40;;;14.70;87.00;;;;;;5029158;28;20037;-68
2023/03/15 07:45:58;;;;;;;;;;;14.30;88.20;;;;;;5029223;28;20044;-66
2023/03/15 07:48:24;;;;;;;10.45;4.60;;;13.80;91.20;;;;;;5029487;28;20295;-67
2023/03/15 07:50:49;;;;;;;13.77;4.50;;;14.30;90.00;;;;;;5029452;28;20494;-68
2023/03/15 07:53:15;;;;;;;8.57;3.60;;;15.10;88.10;;;;;;5029622;28;20025;-67
2023/03/15 07:55:41;;;;;;;13.30;4.03;;;14.90;90.20;;;;;;5029994;28;20444;-66
2023/03/15 07:58:06;;;;;;;11.47;4.30;;;15.30;87.00;;;;;;5028633;28;20041;-66
2023/03/15 08:00:32;;;;;;;8.27;3.43;;;15.90;84.20;;;;;;5028589;28;20436;-69
2023/03/15 08:02:58;;;;;;;7.88;3.33;;;17.00;82.60;;;;;;5029019;28;20071;-70
2023/03/15 08:05:24;;;;;;;10.38;3.13;;;17.30;78.60;;;;;;5017107;28;20604;-69
2023/03/15 08:07:50;;;;;;;9.85;3.45;;;18.00;76.80;;;;;;5027479;28;20033;-70
2023/03/15 08:10:16;;;;;;;12.63;4.22;;;17.20;78.10;;;;;;5027974;28;20034;-70
2023/03/15 08:12:43;;;;;;;9.48;3.45;;;17.60;77.40;;;;;;5028761;28;20033;-68
2023/03/15 08:15:13;;;;;;;15.05;3.97;;;18.50;74.00;;;;;;5028529;28;20072;-65
2023/03/15 08:17:39;;;;;;;10.43;3.35;;;19.20;71.10;;;;;;5027637;28;20476;-64
2023/03/15 08:20:09;;;;;;;;;;;18.80;73.90;;;;;;5023760;28;20017;-67
2023/03/15 08:22:34;;;;;;;10.15;4.18;;;18.40;73.40;;;;;;5027898;28;19952;-64
2023/03/15 08:25:00;;;;;;;10.37;3.57;;;20.00;71.60;;;;;;5028374;28;20071;-67
2023/03/15 08:27:25;;;;;;;9.93;4.20;;;20.90;69.30;;;;;;5027249;28;20033;-71
2023/03/15 08:29:51;;;;;;;7.30;3.33;;;20.20;66.20;;;;;;5026909;28;20069;-68
2023/03/15 08:32:18;;;;;;;7.77;2.90;;;21.40;64.60;;;;;;5028523;28;20847;-65
2023/03/15 08:34:44;;;;;;;9.93;3.40;;;22.90;63.20;;;;;;5028409;28;20452;-66
2023/03/15 08:37:10;;;;;;;5.72;2.90;;;23.00;60.50;;;;;;5028162;28;20909;-66
2023/03/15 08:39:37;;;;;;;14.35;3.10;;;23.00;59.20;;;;;;5027649;28;20116;-65
2023/03/15 08:42:03;;;;;;;7.30;2.97;;;22.50;60.50;;;;;;5027648;28;20033;-66
2023/03/15 08:44:29;;;;;;;5.22;2.25;;;23.10;59.70;;;;;;5026424;28;20441;-65
2023/03/15 08:46:55;;;;;;;6.00;2.50;;;22.40;58.90;;;;;;5026734;28;20068;-67
2023/03/15 08:49:20;;;;;;;6.10;2.47;;;21.60;58.40;;;;;;5027724;28;20041;-70
2023/03/15 08:51:46;;;;;;;8.40;3.23;;;18.50;64.60;;;;;;5027589;28;20512;-67
2023/03/15 08:54:13;;;;;;;10.45;3.22;;;18.90;67.90;;;;;;5027561;28;20037;-67
2023/03/15 08:56:40;;;;;;;6.63;2.60;;;18.00;68.80;;;;;;5027907;28;20041;-67
2023/03/15 08:59:05;;;;;;;9.35;3.03;;;18.60;67.60;;;;;;5027566;28;20406;-69
2023/03/15 09:01:32;;;;;;;6.47;2.63;;;17.40;71.00;;;;;;5027768;28;20037;-66
2023/03/15 09:03:57;;;;;;;6.50;2.45;;;17.10;70.00;;;;;;5026888;28;20060;-69
2023/03/15 09:06:23;;;;;;;4.27;2.17;;;16.90;71.10;;;;;;5023821;28;20402;-67
2023/03/15 09:08:49;;;;;;;10.15;2.63;;;16.60;73.90;;;;;;5027662;28;20095;-66
2023/03/15 09:11:14;;;;;;;5.82;1.95;;;18.00;70.30;;;;;;5028021;28;20505;-67
2023/03/15 09:13:40;;;;;;;4.77;2.17;;;19.50;67.30;;;;;;5026763;28;20045;-67
2023/03/15 09:16:06;;;;;;;6.97;2.03;;;20.10;65.40;;;;;;5024479;28;20032;-64
2023/03/15 09:18:32;;;;;;;6.13;1.90;;;19.40;64.70;;;;;;5021596;28;20042;-65
2023/03/15 09:20:58;;;;;;;8.88;1.98;;;20.40;61.90;;;;;;5027289;28;20037;-64
2023/03/15 09:23:24;;;;;;;6.07;2.10;;;21.80;60.50;;;;;;5027908;28;20056;-65
2023/03/15 09:25:49;;;;;;;12.07;2.63;;;22.80;59.80;;;;;;5028625;28;20393;-69
2023/03/15 09:28:15;;;;;;;11.77;2.30;;;23.30;56.70;;;;;;5028079;28;20525;-66
2023/03/15 09:30:41;;;;;;;11.18;2.22;;;24.00;55.10;;;;;;5027586;28;20033;-64
2023/03/15 09:33:07;;;;;;;8.02;2.83;;;21.20;57.80;;;;;;5028089;28;20100;-68
2023/03/15 09:35:33;;;;;;;;;;;21.30;58.10;;;;;;5028718;28;20029;-65
2023/03/15 09:37:59;;;;;;;4.18;1.95;;;21.20;56.60;;;;;;5027643;28;19928;-64
2023/03/15 09:40:37;;;;;;;6.57;2.47;;;21.30;58.00;;;;;;5027817;28;20454;-66
2023/03/15 09:43:05;;;;;;;5.18;2.20;;;22.10;58.30;;;;;;5023331;28;20040;-69
2023/03/15 09:46:06;;;;;;;4.93;1.83;;;22.40;57.40;;;;;;5026818;28;20916;-67
2023/03/15 09:48:36;;;;;;;5.78;1.88;;;23.20;54.90;;;;;;5023111;28;20041;-66
2023/03/15 09:51:08;;;;;;;5.45;1.52;;;24.60;52.90;;;;;;5021131;28;20029;-67
2023/03/15 09:53:42;;;;;;;5.75;1.70;;;24.90;52.40;;;;;;5020126;28;20417;-68
2023/03/15 09:56:46;;;;;;;3.08;2.10;;;24.80;52.30;;;;;;5024136;28;20034;-67
2023/03/15 09:59:15;;;;;;;6.45;2.15;;;24.40;50.90;;;;;;5022733;28;20501;-65
2023/03/15 10:01:42;;;;;;;4.68;1.13;;;23.90;51.50;;;;;;5024880;28;20091;-66
2023/03/15 10:04:40;;;;;;;5.75;1.63;;;23.00;51.50;;;;;;5025941;28;20026;-67
2023/03/15 10:07:13;;;;;;;5.05;1.92;;;22.90;53.90;;;;;;5024661;28;20026;-65
2023/03/15 10:09:39;;;;;;;6.97;1.73;;;23.10;51.30;;;;;;5022862;28;20041;-64
2023/03/15 10:12:12;;;;;;;6.72;1.48;;;21.80;52.80;;;;;;5026066;28;20048;-68
2023/03/15 10:14:45;;;;;;;4.95;1.50;;;20.70;55.10;;;;;;5022900;28;20038;-67
2023/03/15 10:17:32;;;;;;;2.75;1.23;;;20.50;55.20;;;;;;5026182;28;20047;-70
2023/03/15 10:20:05;;;;;;;5.30;1.67;;;19.20;56.40;;;;;;5021193;28;20049;-72
2023/03/15 10:22:48;;;;;;;3.92;1.30;;;20.60;55.90;;;;;;5024426;28;20120;-72
2023/03/15 10:25:28;;;;;;;4.25;1.20;;;19.40;57.00;;;;;;5022170;28;20030;-71
2023/03/15 10:28:04;;;;;;;3.17;1.27;;;19.30;59.90;;;;;;5026331;28;20041;-71
2023/03/15 10:30:35;;;;;;;4.55;1.10;;;19.90;58.50;;;;;;5025896;28;20106;-66
2023/03/15 10:33:12;;;;;;;4.57;1.33;;;18.20;58.60;;;;;;5024971;28;20052;-67
2023/03/15 10:35:37;;;;;;;7.25;1.23;;;18.70;59.30;;;;;;5026083;28;20094;-67
2023/03/15 10:38:16;;;;;;;6.47;1.50;;;17.80;59.40;;;;;;5025464;28;20053;-67
2023/03/15 10:40:49;;;;;;;5.00;1.13;;;17.90;60.20;;;;;;5025821;28;20280;-66
2023/03/15 10:43:24;;;;;;;3.25;1.10;;;17.70;62.00;;;;;;5024160;28;20037;-65
2023/03/15 10:46:09;;;;;;;5.05;0.98;;;17.90;60.00;;;;;;5023225;28;20026;-69
2023/03/15 10:48:37;;;;;;;4.82;1.45;;;17.30;56.50;;;;;;5025690;28;20037;-65
2023/03/15 10:51:06;;;;;;;2.28;0.82;;;16.80;57.40;;;;;;5025698;28;20113;-68
2023/03/15 10:53:33;;;;;;;3.88;1.30;;;17.10;56.80;;;;;;5025056;28;20120;-70
2023/03/15 10:56:02;;;;;;;2.13;1.05;;;17.10;58.90;;;;;;5024248;28;20028;-68
2023/03/15 10:58:46;;;;;;;2.00;0.90;;;17.40;57.90;;;;;;5024549;28;20520;-69
2023/03/15 11:01:27;;;;;;;3.80;1.13;;;17.90;55.90;;;;;;5025112;28;20497;-67
2023/03/15 11:04:23;;;;;;;1.95;1.02;;;16.80;56.70;;;;;;5025999;28;20028;-70
2023/03/15 11:06:57;;;;;;;3.20;1.10;;;16.10;58.60;;;;;;5023351;28;20041;-68
2023/03/15 11:09:26;;;;;;;2.63;0.93;;;15.70;59.10;;;;;;5024442;28;20036;-71
2023/03/15 11:12:03;;;;;;;5.93;1.05;;;15.50;62.40;;;;;;5021822;28;20524;-68
2023/03/15 11:14:46;;;;;;;3.45;1.02;;;14.90;64.50;;;;;;5024798;28;20159;-71
2023/03/15 11:17:17;;;;;;;3.35;0.90;;;14.80;63.90;;;;;;5023007;28;20037;-69
2023/03/15 11:19:54;;;;;;;5.05;1.02;;;14.90;65.20;;;;;;5024767;28;20500;-73
2023/03/15 11:22:20;;;;;;;2.58;0.95;;;14.70;65.70;;;;;;5009733;28;20029;-70
2023/03/15 11:24:46;;;;;;;2.43;0.73;;;14.30;67.20;;;;;;5025231;28;20573;-72
2023/03/15 11:27:17;;;;;;;4.55;0.90;;;14.40;68.00;;;;;;5025857;28;20101;-68
2023/03/15 11:29:47;;;;;;;1.80;0.82;;;14.30;66.20;;;;;;5016763;28;20129;-71
2023/03/15 11:32:20;;;;;;;3.50;0.93;;;14.20;67.90;;;;;;5024774;28;20501;-70
2023/03/15 11:35:09;;;;;;;2.17;0.80;;;13.90;67.10;;;;;;5023683;28;20029;-68
2023/03/15 11:37:43;;;;;;;3.60;1.45;;;14.20;64.90;;;;;;5023948;28;20038;-69
2023/03/15 11:40:33;;;;;;;3.67;0.70;;;14.20;67.60;;;;;;5023266;28;20075;-66
2023/03/15 11:43:12;;;;;;;2.58;1.08;;;13.60;67.80;;;;;;5020961;28;20033;-67
2023/03/15 11:45:47;;;;;;;2.45;1.05;;;13.90;68.60;;;;;;5024221;28;20029;-69
2023/03/15 11:48:23;;;;;;;2.28;0.82;;;13.70;65.40;;;;;;5023579;28;20323;-64
2023/03/15 11:50:56;;;;;;;2.05;0.90;;;13.70;68.90;;;;;;5023166;28;20549;-69
2023/03/15 11:53:31;;;;;;;2.53;0.90;;;13.70;65.50;;;;;;5022458;28;20041;-67
2023/03/15 11:56:19;;;;;;;2.38;0.77;;;13.60;68.50;;;;;;5019290;28;20030;-69
2023/03/15 11:59:00;;;;;;;3.55;1.08;;;13.70;69.50;;;;;;5025758;28;20100;-69
2023/03/15 12:01:26;;;;;;;4.57;1.02;;;13.70;64.50;;;;;;5024648;28;20029;-68
2023/03/15 12:04:35;;;;;;;4.80;1.13;;;13.90;66.00;;;;;;5020949;28;20449;-70
2023/03/15 12:07:18;;;;;;;3.67;0.80;;;13.90;68.10;;;;;;5014672;28;20045;-69
2023/03/15 12:10:28;;;;;;;3.92;0.93;;;13.90;67.70;;;;;;5025619;28;20040;-69
2023/03/15 12:13:05;;;;;;;2.05;0.93;;;13.80;65.00;;;;;;5030686;28;20033;-70
2023/03/15 12:15:30;;;;;;;2.42;1.00;;;13.80;68.10;;;;;;5024800;28;20025;-70
2023/03/15 12:17:58;;;;;;;4.13;0.90;;;13.80;68.50;;;;;;5027662;28;20379;-70
2023/03/15 12:20:52;;;;;;;3.28;1.00;;;13.80;67.90;;;;;;5029960;28;20034;-70
2023/03/15 12:23:18;;;;;;;3.00;0.88;;;13.80;68.10;;;;;;5029046;28;20036;-70
2023/03/15 12:26:06;;;;;;;2.63;0.83;;;13.80;69.10;;;;;;5029359;28;20026;-70
2023/03/15 12:29:00;;;;;;;1.88;0.70;;;13.70;65.80;;;;;;5027487;28;20037;-70
2023/03/15 12:31:42;;;;;;;1.73;0.85;;;13.70;68.40;;;;;;5027029;28;20061;-70
2023/03/15 12:34:21;;;;;;;1.73;0.90;;;13.80;68.50;;;;;;5058960;28;20076;-68
2023/03/15 12:36:50;;;;;;;2.58;0.85;;;13.70;65.50;;;;;;5024257;28;20516;-66
2023/03/15 12:39:16;;;;;;;4.53;0.90;;;13.80;68.10;;;;;;5026578;28;20037;-68
2023/03/15 12:41:45;;;;;;;4.17;0.80;;;13.80;67.10;;;;;;5026945;28;20033;-67
2023/03/15 12:44:32;;;;;;;1.20;0.95;;;13.90;64.40;;;;;;5028099;28;20091;-69
2023/03/15 12:47:03;;;;;;;6.22;1.05;;;13.90;68.20;;;;;;5026512;28;20030;-68
2023/03/15 12:49:44;;;;;;;1.58;0.75;;;13.80;65.00;;;;;;5027912;28;20445;-68
2023/03/15 12:52:09;;;;;;;3.85;1.00;;;13.70;66.40;;;;;;5028545;28;20175;-68
2023/03/15 12:54:45;;;;;;;6.03;1.10;;;13.70;66.10;;;;;;5027852;28;20532;-68
2023/03/15 12:57:20;;;;;;;2.92;0.85;;;13.70;69.60;;;;;;5028078;28;20034;-63
2023/03/15 12:59:50;;;;;;;1.48;0.57;;;13.80;66.00;;;;;;5019517;28;20528;-65